Time;durP1;ratioP1;P1;durP2;ratioP2;P2;SDS_P1;SDS_P2;PMS_P1;PMS_P2;Temp;Humidity;BMP_temperature;BMP_pressure;BME280_temperature;BME280_humidity;BME280_pressure;Samples;Min_cycle;Max_cycle;Signal;HPM_P1;HPM_P2
2022/07/24 00:00:56;;;;;;;3.50;2.50;;;;;;;17.96;71.77;99449.11;109343;1274;139428;-56
2022/07/24 00:03:23;;;;;;;4.60;3.00;;;;;;;18.07;71.59;99447.93;109470;1274;22453;-56
2022/07/24 00:05:55;;;;;;;4.80;2.70;;;;;;;18.23;71.31;99450.95;109389;1274;139490;-56
2022/07/24 00:08:22;;;;;;;2.70;2.20;;;;;;;18.36;70.83;99454.52;109501;1273;22256;-57
2022/07/24 00:10:48;;;;;;;2.80;2.60;;;;;;;18.48;70.27;99451.69;109460;1274;23371;-57
2022/07/24 00:13:15;;;;;;;5.40;2.70;;;;;;;18.60;69.79;99453.92;109375;1274;138612;-57
2022/07/24 00:15:42;;;;;;;5.20;2.40;;;;;;;18.70;69.57;99457.72;109338;1274;23197;-57
2022/07/24 00:18:09;;;;;;;3.70;2.60;;;;;;;18.80;69.31;99460.06;109266;1274;139244;-57
2022/07/24 00:20:36;;;;;;;3.20;2.50;;;;;;;18.89;69.24;99458.41;109150;1276;23249;-57
2022/07/24 00:23:03;;;;;;;3.60;2.30;;;;;;;18.95;69.02;99455.55;109152;1276;22427;-56
2022/07/24 00:25:30;;;;;;;6.60;2.60;;;;;;;18.98;68.94;99459.31;108693;1274;138772;-54
2022/07/24 00:27:57;;;;;;;4.50;3.00;;;;;;;18.99;68.80;99461.30;105102;1274;24234;-54
2022/07/24 00:30:24;;;;;;;4.60;2.80;;;;;;;18.99;68.43;99454.52;105050;1277;139337;-55
2022/07/24 00:32:51;;;;;;;6.20;3.60;;;;;;;18.98;68.50;99449.84;105060;1277;22732;-54
2022/07/24 00:35:17;;;;;;;3.70;3.00;;;;;;;18.95;68.62;99449.84;105058;1274;24305;-55
2022/07/24 00:37:46;;;;;;;5.70;3.30;;;;;;;18.91;68.64;99453.87;105003;1277;137966;-55
2022/07/24 00:40:15;;;;;;;3.70;3.00;;;;;;;18.86;68.78;99457.17;105051;1277;22617;-55
2022/07/24 00:42:43;;;;;;;4.50;3.10;;;;;;;18.82;68.84;99457.09;104984;1274;138783;-55
2022/07/24 00:45:10;;;;;;;6.80;3.00;;;;;;;18.78;68.88;99458.96;104991;1277;25503;-55
2022/07/24 00:47:51;;;;;;;3.90;3.00;;;;;;;18.73;68.98;99457.04;105016;1275;138904;-59
2022/07/24 00:50:23;;;;;;;5.60;2.80;;;;;;;18.67;68.94;99456.02;109383;1274;22459;-57
2022/07/24 00:52:50;;;;;;;3.90;2.80;;;;;;;18.60;69.26;99457.09;109428;1274;22478;-56
2022/07/24 00:55:17;;;;;;;3.70;2.90;;;;;;;18.52;69.31;99450.83;108997;1274;138034;-56
2022/07/24 00:57:45;;;;;;;4.80;2.80;;;;;;;18.47;69.45;99447.20;105033;1274;22634;-56
2022/07/24 01:00:13;;;;;;;5.30;3.20;;;;;;;18.42;69.55;99447.50;109253;1274;138181;-56
2022/07/24 01:02:41;;;;;;;4.80;2.50;;;;;;;18.37;69.54;99453.81;109336;1274;22525;-57
2022/07/24 01:05:11;;;;;;;3.10;2.60;;;;;;;18.35;69.51;99451.77;109313;1276;22437;-57
2022/07/24 01:07:37;;;;;;;2.80;2.40;;;;;;;18.37;69.46;99462.77;109277;1274;139420;-56
2022/07/24 01:10:05;;;;;;;3.70;2.40;;;;;;;18.39;69.55;99472.20;109424;1274;22454;-57
2022/07/24 01:12:32;;;;;;;5.30;2.70;;;;;;;18.43;69.47;99474.18;109248;1274;138375;-56
2022/07/24 01:14:59;;;;;;;4.40;2.50;;;;;;;18.46;69.39;99466.75;109422;1274;23044;-56
2022/07/24 01:17:30;;;;;;;3.70;2.40;;;;;;;18.49;69.38;99463.87;109525;1274;22477;-56
2022/07/24 01:19:58;;;;;;;3.20;2.10;;;;;;;18.48;69.43;99468.15;109388;1274;138385;-56
2022/07/24 01:22:25;;;;;;;3.40;2.90;;;;;;;18.44;69.59;99461.63;109505;1274;24313;-56
2022/07/24 01:24:53;;;;;;;3.20;2.70;;;;;;;18.41;69.44;99466.16;109451;1274;138854;-56
2022/07/24 01:27:20;;;;;;;2.40;2.20;;;;;;;18.38;69.49;99465.61;109490;1274;22533;-56
2022/07/24 01:29:47;;;;;;;4.60;2.50;;;;;;;18.34;69.52;99467.67;109483;1274;22234;-56
2022/07/24 01:32:14;;;;;;;4.80;2.50;;;;;;;18.31;69.68;99467.66;109427;1274;138673;-56
2022/07/24 01:34:41;;;;;;;4.80;2.40;;;;;;;18.29;69.72;99465.50;109393;1274;22450;-56
2022/07/24 01:37:08;;;;;;;4.60;3.10;;;;;;;18.25;69.76;99464.70;109400;1274;139228;-56
2022/07/24 01:39:35;;;;;;;2.90;2.30;;;;;;;18.18;69.89;99468.16;109470;1272;23316;-57
2022/07/24 01:42:02;;;;;;;5.40;2.90;;;;;;;18.13;70.03;99471.47;109395;1273;139989;-57
2022/07/24 01:44:29;;;;;;;2.60;2.40;;;;;;;18.07;70.21;99470.55;109503;1274;23391;-57
2022/07/24 01:46:56;;;;;;;3.30;2.50;;;;;;;18.00;70.59;99469.81;109520;1274;22420;-57
2022/07/24 01:49:22;;;;;;;3.10;2.80;;;;;;;17.94;70.64;99464.64;109375;1272;138195;-57
2022/07/24 01:51:49;;;;;;;6.50;2.80;;;;;;;17.89;70.88;99462.52;109503;1272;22551;-57
2022/07/24 01:54:16;;;;;;;3.00;2.80;;;;;;;17.83;71.04;99462.13;109360;1274;139328;-57
2022/07/24 01:56:43;;;;;;;4.00;2.40;;;;;;;17.77;71.22;99457.44;106768;1273;22721;-62
2022/07/24 01:59:10;;;;;;;4.00;2.40;;;;;;;17.73;71.25;99460.42;105217;1274;22653;-62
2022/07/24 02:01:39;;;;;;;4.60;2.30;;;;;;;17.69;71.41;99457.63;109321;1274;139642;-61
2022/07/24 02:04:06;;;;;;;5.10;2.70;;;;;;;17.63;71.47;99458.75;109532;1272;22440;-61
2022/07/24 02:06:32;;;;;;;6.70;2.70;;;;;;;17.58;71.66;99460.08;109253;1274;138204;-62
2022/07/24 02:08:59;;;;;;;7.30;3.50;;;;;;;17.54;71.83;99460.33;109358;1274;22461;-62
2022/07/24 02:11:27;;;;;;;8.60;2.60;;;;;;;17.49;71.93;99460.95;109503;1274;23224;-62
2022/07/24 02:13:55;;;;;;;9.10;2.40;;;;;;;17.45;72.11;99458.46;109376;1274;140045;-62
2022/07/24 02:16:22;;;;;;;11.80;3.20;;;;;;;17.43;72.16;99461.04;109428;1274;22463;-61
2022/07/24 02:18:49;;;;;;;7.10;3.40;;;;;;;17.40;72.31;99462.02;109488;1271;139475;-61
2022/07/24 02:21:16;;;;;;;5.70;2.70;;;;;;;17.36;72.40;99456.97;109532;1274;22438;-62
2022/07/24 02:23:42;;;;;;;8.60;2.70;;;;;;;17.32;72.70;99457.30;109482;1274;22427;-62
2022/07/24 02:26:09;;;;;;;3.90;2.60;;;;;;;17.30;72.76;99458.45;109445;1273;139481;-57
2022/07/24 02:28:36;;;;;;;5.80;2.80;;;;;;;17.29;72.97;99459.53;109542;1273;22265;-56
2022/07/24 02:31:03;;;;;;;4.30;2.80;;;;;;;17.27;72.94;99458.52;109399;1274;141294;-57
2022/07/24 02:33:29;;;;;;;4.10;2.70;;;;;;;17.26;73.16;99455.95;109469;1274;22451;-57
2022/07/24 02:35:56;;;;;;;3.00;2.70;;;;;;;17.25;73.35;99460.48;109366;1274;139085;-55
2022/07/24 02:38:23;;;;;;;2.90;2.40;;;;;;;17.26;73.38;99465.91;109488;1273;22202;-56
2022/07/24 02:40:50;;;;;;;3.50;2.90;;;;;;;17.28;73.62;99470.94;109544;1273;22575;-58
2022/07/24 02:43:16;;;;;;;3.10;2.80;;;;;;;17.28;73.56;99471.27;109385;1274;139168;-56
2022/07/24 02:45:44;;;;;;;3.00;2.70;;;;;;;17.29;73.72;99473.30;109488;1274;22455;-55
2022/07/24 02:48:17;;;;;;;4.70;2.60;;;;;;;17.31;73.84;99476.77;109314;1274;138026;-56
2022/07/24 02:50:44;;;;;;;4.40;2.90;;;;;;;17.33;73.90;99475.46;109489;1274;22471;-56
2022/07/24 02:53:10;;;;;;;11.70;3.20;;;;;;;17.35;74.00;99472.02;109579;1273;22521;-56
2022/07/24 02:55:37;;;;;;;6.00;3.20;;;;;;;17.35;74.26;99475.75;109430;1274;138973;-56
2022/07/24 02:58:04;;;;;;;4.10;2.90;;;;;;;17.37;74.41;99470.83;109513;1274;22428;-56
2022/07/24 03:00:31;;;;;;;6.90;3.50;;;;;;;17.40;74.68;99465.55;109376;1274;139123;-56
2022/07/24 03:02:58;;;;;;;7.40;3.60;;;;;;;17.42;74.67;99465.56;109527;1274;22273;-56
2022/07/24 03:05:24;;;;;;;5.90;2.80;;;;;;;17.46;74.86;99463.01;109527;1274;22487;-55
2022/07/24 03:07:51;;;;;;;4.90;2.80;;;;;;;17.49;75.04;99456.70;109427;1274;137945;-57
2022/07/24 03:10:18;;;;;;;5.60;3.60;;;;;;;17.54;75.28;99455.75;109459;1274;23144;-57
2022/07/24 03:12:45;;;;;;;4.70;2.80;;;;;;;17.58;75.35;99455.09;109335;1274;140373;-57
2022/07/24 03:15:12;;;;;;;4.20;3.00;;;;;;;17.63;75.69;99449.39;109549;1273;23617;-57
2022/07/24 03:17:39;;;;;;;3.00;2.70;;;;;;;17.69;75.98;99444.78;109507;1273;22823;-57
2022/07/24 03:20:06;;;;;;;3.80;2.70;;;;;;;17.75;76.12;99443.39;109438;1274;137755;-58
2022/07/24 03:22:33;;;;;;;4.20;3.00;;;;;;;17.81;76.31;99440.44;109424;1274;22410;-57
2022/07/24 03:25:01;;;;;;;6.10;3.00;;;;;;;17.88;76.28;99438.54;109400;1274;138262;-57
2022/07/24 03:27:28;;;;;;;4.00;2.80;;;;;;;17.94;76.36;99444.89;109447;1274;22440;-57
2022/07/24 03:29:54;;;;;;;3.60;2.90;;;;;;;18.02;76.21;99444.59;109420;1274;138549;-57
2022/07/24 03:32:21;;;;;;;4.90;3.10;;;;;;;18.09;76.03;99441.67;109484;1274;22462;-57
2022/07/24 03:34:48;;;;;;;7.90;2.80;;;;;;;18.17;75.89;99435.20;109566;1274;22617;-57
2022/07/24 03:37:15;;;;;;;9.80;3.20;;;;;;;18.26;76.11;99429.86;109359;1274;138458;-57
2022/07/24 03:39:42;;;;;;;3.70;3.00;;;;;;;18.35;76.20;99431.23;109470;1273;22445;-57
2022/07/24 03:42:09;;;;;;;4.60;3.10;;;;;;;18.45;76.17;99433.95;109335;1274;138960;-56
2022/07/24 03:44:35;;;;;;;4.20;2.70;;;;;;;18.54;75.84;99437.11;109510;1274;22422;-56
2022/07/24 03:47:02;;;;;;;3.70;2.80;;;;;;;18.63;75.45;99443.86;109596;1272;22479;-56
2022/07/24 03:49:29;;;;;;;4.40;2.60;;;;;;;18.72;74.67;99444.20;109460;1274;138728;-57
2022/07/24 03:51:56;;;;;;;5.90;3.10;;;;;;;18.83;74.31;99447.02;109594;1273;22444;-57
2022/07/24 03:54:23;;;;;;;5.00;3.30;;;;;;;18.93;73.92;99444.33;109407;1274;139231;-57
2022/07/24 03:56:50;;;;;;;4.20;3.30;;;;;;;19.03;73.55;99442.65;109613;1274;22459;-56
2022/07/24 03:59:17;;;;;;;3.50;3.10;;;;;;;19.13;73.41;99445.63;109449;1273;22492;-57
2022/07/24 04:01:44;;;;;;;6.50;3.30;;;;;;;19.22;73.41;99446.82;109410;1274;138678;-56
2022/07/24 04:04:11;;;;;;;4.70;3.00;;;;;;;19.34;73.29;99447.08;109509;1274;23168;-56
2022/07/24 04:06:38;;;;;;;6.70;2.70;;;;;;;19.43;72.83;99444.39;109404;1274;138965;-57
2022/07/24 04:09:04;;;;;;;5.50;2.80;;;;;;;19.53;72.50;99439.45;109528;1274;22439;-57
2022/07/24 04:11:32;;;;;;;4.20;2.90;;;;;;;19.63;72.44;99437.35;109492;1274;22488;-57
2022/07/24 04:13:59;;;;;;;8.90;3.70;;;;;;;19.72;71.79;99441.52;109359;1274;138370;-57
2022/07/24 04:16:26;;;;;;;5.10;2.80;;;;;;;19.82;71.64;99444.09;109459;1274;23178;-56
2022/07/24 04:18:53;;;;;;;4.00;3.00;;;;;;;19.90;71.17;99448.10;109361;1274;138296;-56
2022/07/24 04:21:20;;;;;;;7.30;3.20;;;;;;;19.99;70.76;99444.80;109458;1274;22247;-57
2022/07/24 04:23:46;;;;;;;6.30;2.70;;;;;;;20.09;70.39;99442.12;109491;1273;22302;-57
2022/07/24 04:26:13;;;;;;;6.30;3.10;;;;;;;20.19;70.21;99437.58;109221;1274;139344;-57
2022/07/24 04:28:41;;;;;;;5.00;2.50;;;;;;;20.28;70.02;99433.23;109497;1274;23437;-57
2022/07/24 04:31:08;;;;;;;7.40;3.30;;;;;;;20.38;69.47;99432.72;109159;1276;139406;-57
2022/07/24 04:33:35;;;;;;;4.60;2.90;;;;;;;20.46;69.11;99425.16;109454;1274;23019;-57
2022/07/24 04:36:03;;;;;;;9.20;3.10;;;;;;;20.56;68.98;99419.72;109385;1274;140162;-57
2022/07/24 04:38:32;;;;;;;7.20;3.00;;;;;;;20.63;68.68;99409.89;109495;1274;22575;-57
2022/07/24 04:40:59;;;;;;;3.70;2.50;;;;;;;20.74;68.59;99408.92;109372;1274;22465;-57
2022/07/24 04:43:25;;;;;;;5.90;3.20;;;;;;;20.83;68.53;99404.41;109336;1274;138621;-57
2022/07/24 04:45:52;;;;;;;4.70;2.80;;;;;;;20.90;68.38;99399.68;109453;1274;23128;-57
2022/07/24 04:48:19;;;;;;;5.30;3.00;;;;;;;21.00;68.16;99400.40;109361;1274;139296;-57
2022/07/24 04:50:46;;;;;;;2.70;2.40;;;;;;;21.08;67.85;99400.50;109451;1274;22426;-57
2022/07/24 04:53:13;;;;;;;4.40;2.30;;;;;;;21.14;67.62;99399.52;109404;1274;23078;-57
2022/07/24 04:55:39;;;;;;;4.80;3.00;;;;;;;21.22;67.67;99399.32;109276;1274;139111;-57
2022/07/24 04:58:06;;;;;;;4.80;2.90;;;;;;;21.28;67.84;99396.33;109352;1274;22527;-56
2022/07/24 05:00:33;;;;;;;2.50;2.30;;;;;;;21.34;67.51;99396.67;109223;1274;138975;-57
2022/07/24 05:03:00;;;;;;;3.70;2.50;;;;;;;21.41;67.08;99399.57;109281;1274;22410;-57
2022/07/24 05:05:26;;;;;;;4.60;2.70;;;;;;;21.47;67.13;99401.25;109233;1274;23317;-57
2022/07/24 05:07:53;;;;;;;4.00;3.10;;;;;;;21.52;66.83;99401.92;109198;1274;138580;-57
2022/07/24 05:10:20;;;;;;;4.10;2.60;;;;;;;21.58;66.85;99400.27;109295;1274;22478;-57
2022/07/24 05:12:47;;;;;;;9.10;2.60;;;;;;;21.65;66.64;99397.36;109278;1274;139707;-57
2022/07/24 05:15:14;;;;;;;2.70;2.40;;;;;;;21.73;66.25;99395.18;109371;1274;22585;-57
2022/07/24 05:17:41;;;;;;;3.60;2.20;;;;;;;21.83;65.73;99391.61;109402;1274;22463;-57
2022/07/24 05:20:08;;;;;;;5.50;2.20;;;;;;;21.97;65.26;99387.34;109283;1274;138470;-57
2022/07/24 05:22:35;;;;;;;2.70;2.20;;;;;;;22.15;65.13;99380.47;109241;1277;22468;-57
2022/07/24 05:25:02;;;;;;;3.40;2.00;;;;;;;22.40;65.01;99376.25;109232;1274;137774;-57
2022/07/24 05:27:29;;;;;;;5.10;2.40;;;;;;;22.72;64.24;99373.71;109371;1274;23049;-57
2022/07/24 05:29:56;;;;;;;3.40;2.20;;;;;;;23.11;63.11;99371.60;109290;1274;139151;-57
2022/07/24 05:32:23;;;;;;;3.40;2.20;;;;;;;23.54;61.87;99371.05;109428;1274;22452;-58
2022/07/24 05:34:49;;;;;;;2.80;2.30;;;;;;;24.02;60.44;99370.69;109397;1274;22476;-58
2022/07/24 05:37:16;;;;;;;4.00;2.30;;;;;;;24.50;58.88;99371.91;109278;1274;138424;-58
2022/07/24 05:39:43;;;;;;;12.30;2.90;;;;;;;25.00;57.95;99372.11;109371;1274;22458;-58
2022/07/24 05:42:10;;;;;;;3.30;2.70;;;;;;;25.46;56.84;99372.36;109332;1274;139862;-56
2022/07/24 05:44:37;;;;;;;2.70;2.50;;;;;;;25.97;55.72;99379.50;109278;1276;23133;-57
2022/07/24 05:47:04;;;;;;;4.60;2.40;;;;;;;26.46;54.39;99377.73;109226;1276;22587;-56
2022/07/24 05:49:33;;;;;;;6.70;2.80;;;;;;;26.91;53.24;99375.60;109367;1274;139082;-56
2022/07/24 05:52:02;;;;;;;4.80;3.40;;;;;;;27.34;52.19;99375.77;109502;1273;22428;-56
2022/07/24 05:54:34;;;;;;;4.60;3.30;;;;;;;27.77;50.47;99378.59;109399;1274;138516;-57
2022/07/24 05:57:01;;;;;;;5.20;3.00;;;;;;;28.13;49.26;99382.17;109448;1274;22574;-56
2022/07/24 05:59:28;;;;;;;2.40;2.20;;;;;;;28.44;47.97;99384.45;109509;1274;23339;-57
2022/07/24 06:01:55;;;;;;;4.20;1.90;;;;;;;28.72;47.28;99386.58;109359;1274;138551;-57
2022/07/24 06:04:22;;;;;;;3.40;2.80;;;;;;;28.97;46.98;99383.75;109419;1274;23389;-57
2022/07/24 06:06:49;;;;;;;4.30;2.20;;;;;;;29.16;46.41;99379.85;106301;1274;137558;-57
2022/07/24 06:09:15;;;;;;;4.50;2.40;;;;;;;29.24;45.94;99379.14;105135;1274;22551;-59
2022/07/24 06:11:42;;;;;;;5.50;2.50;;;;;;;29.24;45.19;99382.10;105226;1274;22747;-57
2022/07/24 06:14:10;;;;;;;4.10;2.70;;;;;;;29.17;45.26;99376.48;109369;1274;137298;-57
2022/07/24 06:16:37;;;;;;;4.10;2.60;;;;;;;29.04;45.31;99379.41;109529;1274;22460;-57
2022/07/24 06:19:04;;;;;;;9.00;3.70;;;;;;;28.88;45.62;99378.36;109406;1274;137775;-57
2022/07/24 06:21:31;;;;;;;6.10;3.20;;;;;;;28.68;45.33;99373.92;109518;1274;22477;-57
2022/07/24 06:23:58;;;;;;;2.30;2.10;;;;;;;28.46;45.40;99374.79;109242;1274;137568;-56
2022/07/24 06:26:25;;;;;;;8.50;2.50;;;;;;;28.26;45.57;99373.48;109455;1274;23149;-58
2022/07/24 06:28:52;;;;;;;5.40;2.20;;;;;;;28.07;46.04;99377.98;109471;1274;22438;-57
2022/07/24 06:31:18;;;;;;;4.20;2.00;;;;;;;27.88;46.17;99371.70;109295;1274;138486;-57
2022/07/24 06:33:45;;;;;;;1.90;1.80;;;;;;;27.70;46.27;99374.09;109350;1274;22469;-58
2022/07/24 06:36:12;;;;;;;2.90;1.90;;;;;;;27.53;46.48;99376.66;109310;1273;138985;-58
2022/07/24 06:38:39;;;;;;;3.60;1.70;;;;;;;27.35;47.00;99375.23;109448;1274;22462;-57
2022/07/24 06:41:06;;;;;;;3.30;1.80;;;;;;;27.22;47.00;99372.45;109393;1274;22462;-57
2022/07/24 06:43:32;;;;;;;7.50;2.10;;;;;;;27.10;47.41;99375.04;109396;1274;137284;-57
2022/07/24 06:45:59;;;;;;;3.70;1.90;;;;;;;26.99;47.72;99366.67;109385;1274;22438;-57
2022/07/24 06:48:26;;;;;;;5.90;2.30;;;;;;;26.89;47.98;99365.34;109211;1274;138335;-57
2022/07/24 06:50:53;;;;;;;3.50;2.40;;;;;;;26.82;48.74;99364.24;109351;1274;22536;-57
2022/07/24 06:53:20;;;;;;;1.80;1.70;;;;;;;26.74;48.44;99362.56;109470;1274;22580;-57
2022/07/24 06:55:48;;;;;;;2.30;1.80;;;;;;;26.67;48.23;99362.98;109333;1274;138200;-57
2022/07/24 06:58:15;;;;;;;4.90;2.00;;;;;;;26.60;48.32;99361.75;109403;1274;22478;-57
2022/07/24 07:00:42;;;;;;;10.40;2.20;;;;;;;26.54;48.29;99359.30;109256;1274;137951;-57
2022/07/24 07:03:08;;;;;;;3.90;1.90;;;;;;;26.46;48.41;99351.00;109354;1274;22434;-57
2022/07/24 07:05:35;;;;;;;2.20;2.00;;;;;;;26.40;48.47;99346.98;109401;1274;22423;-57
2022/07/24 07:08:02;;;;;;;2.10;1.90;;;;;;;26.36;48.37;99343.94;109421;1274;138931;-56
2022/07/24 07:10:29;;;;;;;4.30;2.20;;;;;;;26.31;48.35;99337.84;109483;1274;22461;-57
2022/07/24 07:12:56;;;;;;;3.30;1.80;;;;;;;26.26;48.29;99340.40;109337;1274;139266;-57
2022/07/24 07:15:22;;;;;;;3.10;1.80;;;;;;;26.21;48.37;99337.20;109361;1274;22465;-59
2022/07/24 07:17:50;;;;;;;5.60;2.20;;;;;;;26.17;48.79;99334.48;109455;1274;22465;-60
2022/07/24 07:20:17;;;;;;;4.90;2.20;;;;;;;26.15;48.44;99332.83;109368;1274;138809;-60
2022/07/24 07:22:44;;;;;;;2.50;2.10;;;;;;;26.14;48.99;99327.23;109463;1274;22416;-59
2022/07/24 07:25:11;;;;;;;4.10;2.20;;;;;;;26.15;49.29;99325.40;109260;1274;138734;-60
2022/07/24 07:27:39;;;;;;;6.20;2.10;;;;;;;26.14;48.85;99319.97;109367;1274;22535;-59
2022/07/24 07:30:06;;;;;;;3.20;2.10;;;;;;;26.14;48.66;99322.52;109239;1274;139191;-60
2022/07/24 07:32:33;;;;;;;4.30;2.10;;;;;;;26.15;49.57;99318.86;109541;1273;22624;-60
2022/07/24 07:35:00;;;;;;;3.30;2.00;;;;;;;26.18;48.96;99314.88;109477;1273;22405;-60
2022/07/24 07:37:30;;;;;;;2.40;1.80;;;;;;;26.20;48.61;99310.52;109389;1274;137636;-59
2022/07/24 07:39:58;;;;;;;3.40;2.20;;;;;;;26.23;48.28;99316.81;109485;1274;22499;-59
2022/07/24 07:42:24;;;;;;;3.00;1.90;;;;;;;26.26;48.03;99313.98;109379;1274;138798;-64
2022/07/24 07:44:51;;;;;;;5.10;2.10;;;;;;;26.28;48.59;99308.38;109510;1274;22484;-61
2022/07/24 07:47:18;;;;;;;10.10;2.50;;;;;;;26.33;48.32;99309.31;109477;1273;22453;-60
2022/07/24 07:49:45;;;;;;;2.80;1.90;;;;;;;26.36;47.93;99306.99;109226;1276;139610;-60
2022/07/24 07:52:11;;;;;;;4.30;2.50;;;;;;;26.40;47.95;99310.65;109328;1274;23230;-61
2022/07/24 07:54:38;;;;;;;4.70;2.70;;;;;;;26.43;47.97;99310.95;109257;1274;138480;-61
2022/07/24 07:57:05;;;;;;;7.80;2.50;;;;;;;26.48;48.12;99310.40;109437;1274;23312;-60
2022/07/24 07:59:32;;;;;;;4.30;2.20;;;;;;;26.52;48.45;99308.10;109434;1274;22461;-61
2022/07/24 08:01:59;;;;;;;4.30;2.20;;;;;;;26.56;48.01;99306.48;109252;1274;137364;-61
2022/07/24 08:04:25;;;;;;;6.70;3.50;;;;;;;26.60;47.62;99303.04;109391;1274;22515;-60
2022/07/24 08:06:52;;;;;;;2.40;2.20;;;;;;;26.66;47.65;99303.57;109307;1274;137744;-61
2022/07/24 08:09:20;;;;;;;4.20;2.40;;;;;;;26.70;47.55;99305.23;109533;1274;22534;-62
2022/07/24 08:11:48;;;;;;;3.80;2.60;;;;;;;26.75;46.89;99305.41;109483;1274;22450;-61
2022/07/24 08:14:15;;;;;;;2.40;1.90;;;;;;;26.79;46.45;99299.58;109335;1274;138584;-61
2022/07/24 08:16:42;;;;;;;4.80;2.00;;;;;;;26.84;45.70;99295.27;109493;1273;22583;-61
2022/07/24 08:19:08;;;;;;;2.20;1.90;;;;;;;26.89;45.73;99297.27;109370;1274;137599;-61
2022/07/24 08:21:36;;;;;;;2.60;2.10;;;;;;;26.92;46.05;99290.24;109456;1274;23267;-61
2022/07/24 08:24:04;;;;;;;2.70;2.20;;;;;;;26.97;46.86;99289.79;109365;1274;138343;-60
2022/07/24 08:26:31;;;;;;;6.30;1.80;;;;;;;27.02;47.01;99293.05;109535;1273;23306;-60
2022/07/24 08:28:58;;;;;;;2.00;1.80;;;;;;;27.07;46.90;99291.41;109338;1274;22404;-60
2022/07/24 08:31:25;;;;;;;3.20;2.00;;;;;;;27.13;46.06;99291.00;109357;1274;138159;-60
2022/07/24 08:33:52;;;;;;;3.10;2.20;;;;;;;27.17;45.48;99291.64;109463;1274;22496;-60
2022/07/24 08:36:19;;;;;;;4.10;2.30;;;;;;;27.21;44.59;99290.82;109421;1274;139194;-60
2022/07/24 08:38:46;;;;;;;7.00;3.00;;;;;;;27.24;44.86;99290.41;109552;1272;22387;-59
2022/07/24 08:41:13;;;;;;;4.60;2.10;;;;;;;27.27;45.11;99290.92;109517;1274;22631;-60
2022/07/24 08:43:41;;;;;;;3.80;2.00;;;;;;;27.30;45.42;99287.77;109366;1274;137921;-60
2022/07/24 08:46:09;;;;;;;5.20;2.30;;;;;;;27.32;45.43;99283.40;109498;1274;22455;-60
2022/07/24 08:48:42;;;;;;;3.30;2.20;;;;;;;27.34;44.96;99282.96;109391;1273;138071;-61
2022/07/24 08:51:09;;;;;;;4.20;2.60;;;;;;;27.36;44.78;99281.24;109448;1274;22634;-60
2022/07/24 08:53:35;;;;;;;6.60;1.90;;;;;;;27.40;45.00;99281.70;109457;1274;22425;-60
2022/07/24 08:56:02;;;;;;;3.80;1.80;;;;;;;27.45;45.03;99277.13;109415;1273;138870;-60
2022/07/24 08:58:29;;;;;;;5.70;2.40;;;;;;;27.50;44.62;99272.97;109486;1274;22517;-60
2022/07/24 09:00:56;;;;;;;3.90;2.30;;;;;;;27.54;44.82;99275.13;109426;1274;138060;-61
2022/07/24 09:03:23;;;;;;;2.80;2.00;;;;;;;27.62;44.36;99280.61;109523;1274;22380;-60
2022/07/24 09:05:57;;;;;;;5.90;2.90;;;;;;;27.67;44.16;99271.20;109542;1274;22423;-60
2022/07/24 09:08:24;;;;;;;9.00;2.40;;;;;;;27.71;44.44;99272.34;109544;1274;22477;-60
2022/07/24 09:10:56;;;;;;;4.00;2.10;;;;;;;27.73;43.87;99271.89;109451;1274;23245;-59
2022/07/24 09:13:24;;;;;;;6.20;1.90;;;;;;;27.76;43.75;99274.51;109385;1274;138340;-60
2022/07/24 09:15:51;;;;;;;2.40;2.10;;;;;;;27.79;43.80;99271.10;109462;1273;23249;-60
2022/07/24 09:18:31;;;;;;;6.40;2.00;;;;;;;27.82;43.76;99271.63;109367;1274;139470;-60
2022/07/24 09:21:11;;;;;;;5.90;2.30;;;;;;;27.84;43.76;99270.21;109449;1274;22523;-60
2022/07/24 09:23:38;;;;;;;4.90;1.90;;;;;;;27.85;43.48;99268.13;109492;1274;23197;-59
2022/07/24 09:26:05;;;;;;;2.80;2.00;;;;;;;27.89;43.43;99268.66;109286;1274;137310;-70
2022/07/24 09:28:51;;;;;;;2.80;2.40;;;;;;;27.91;43.03;99268.86;109332;1274;22508;-70
2022/07/24 09:34:08;;;;;;;3.10;2.20;;;;;;;27.97;43.59;99274.86;102076;1307;545417;-70
2022/07/24 09:36:38;;;;;;;2.20;2.00;;;;;;;27.94;42.67;99270.11;104081;1287;137515;-69
2022/07/24 09:39:06;;;;;;;2.90;2.40;;;;;;;27.92;41.73;99272.32;108396;1284;23345;-70
2022/07/24 09:41:33;;;;;;;8.20;3.70;;;;;;;27.88;42.44;99273.38;108406;1284;22544;-68
2022/07/24 09:44:02;;;;;;;4.40;2.70;;;;;;;27.84;42.87;99275.73;108106;1284;138463;-69
2022/07/24 09:46:46;;;;;;;5.90;2.60;;;;;;;27.82;43.63;99275.70;108206;1284;238321;-69
2022/07/24 09:49:19;;;;;;;2.90;2.30;;;;;;;27.80;43.84;99275.85;108471;1284;137648;-69
2022/07/24 09:52:06;;;;;;;7.10;2.50;;;;;;;27.79;43.89;99275.67;108485;1284;23532;-68
2022/07/24 09:54:37;;;;;;;2.30;2.10;;;;;;;27.78;43.87;99275.65;108391;1284;138690;-68
2022/07/24 09:57:23;;;;;;;3.40;2.40;;;;;;;27.76;43.72;99276.98;108511;1284;22451;-60
2022/07/24 09:59:55;;;;;;;4.60;2.70;;;;;;;27.74;44.07;99275.42;108521;1284;22433;-60
2022/07/24 10:02:33;;;;;;;3.00;2.30;;;;;;;27.73;44.09;99273.16;108523;1284;23181;-60
2022/07/24 10:05:01;;;;;;;5.40;2.30;;;;;;;27.70;43.86;99272.49;108546;1282;23355;-60
2022/07/24 10:07:28;;;;;;;7.60;2.60;;;;;;;27.67;43.44;99275.11;108382;1283;136780;-60
2022/07/24 10:09:56;;;;;;;13.30;3.50;;;;;;;27.64;43.62;99279.61;108504;1283;22447;-60
2022/07/24 10:12:25;;;;;;;4.00;3.10;;;;;;;27.60;43.23;99278.02;109102;1277;138194;-60
2022/07/24 10:14:53;;;;;;;8.40;2.70;;;;;;;27.57;43.55;99281.02;109285;1277;23159;-59
2022/07/24 10:17:22;;;;;;;3.80;2.60;;;;;;;27.55;44.28;99282.65;109186;1277;22449;-59
2022/07/24 10:19:51;;;;;;;4.50;2.60;;;;;;;27.53;43.90;99279.91;109182;1274;137178;-59
2022/07/24 10:22:22;;;;;;;4.40;2.70;;;;;;;27.51;43.50;99278.02;109112;1277;22509;-59
2022/07/24 10:24:56;;;;;;;2.90;2.20;;;;;;;27.48;43.23;99281.02;109176;1275;137539;-59
2022/07/24 10:27:36;;;;;;;3.40;2.30;;;;;;;27.46;43.79;99277.06;109285;1276;22435;-59
2022/07/24 10:30:05;;;;;;;7.10;2.80;;;;;;;27.45;44.04;99275.30;109203;1274;139426;-60
2022/07/24 10:32:33;;;;;;;4.70;2.40;;;;;;;27.44;44.63;99273.45;109259;1274;22449;-60
2022/07/24 10:35:16;;;;;;;3.50;2.30;;;;;;;27.45;44.61;99271.53;109222;1274;22648;-60
2022/07/24 10:38:00;;;;;;;3.60;2.50;;;;;;;27.44;44.51;99267.11;109032;1274;139704;-60
2022/07/24 10:40:48;;;;;;;6.70;2.50;;;;;;;27.41;45.22;99263.25;109320;1274;22648;-60
2022/07/24 10:43:16;;;;;;;6.30;2.20;;;;;;;27.40;45.04;99263.95;109119;1274;138160;-61
2022/07/24 10:45:53;;;;;;;3.90;2.20;;;;;;;27.36;44.64;99262.29;109023;1277;22577;-60
2022/07/24 10:48:20;;;;;;;9.30;2.70;;;;;;;27.32;44.74;99264.85;109135;1277;137701;-60
2022/07/24 10:51:13;;;;;;;2.70;2.30;;;;;;;27.28;45.03;99263.27;109247;1277;22465;-61
2022/07/24 10:53:40;;;;;;;4.90;1.80;;;;;;;27.23;45.28;99258.33;109303;1277;22476;-60
2022/07/24 10:56:38;;;;;;;2.50;2.20;;;;;;;27.19;45.37;99255.47;109042;1276;137296;-68
2022/07/24 10:59:09;;;;;;;5.40;3.30;;;;;;;27.16;45.79;99252.54;109279;1277;22426;-69
2022/07/24 11:01:44;;;;;;;4.20;2.50;;;;;;;27.15;45.29;99249.96;109178;1277;139750;-68
2022/07/24 11:04:17;;;;;;;3.70;2.30;;;;;;;27.15;45.13;99249.22;109292;1276;22505;-69
2022/07/24 11:06:46;;;;;;;2.70;2.50;;;;;;;27.15;44.71;99246.84;109163;1277;138657;-68
2022/07/24 11:09:13;;;;;;;5.40;2.30;;;;;;;27.16;44.44;99240.71;109258;1276;22560;-68
2022/07/24 11:11:52;;;;;;;3.30;2.30;;;;;;;27.19;44.33;99243.31;109179;1276;23438;-69
2022/07/24 11:14:24;;;;;;;3.90;2.20;;;;;;;27.21;44.95;99240.47;109256;1276;22447;-68
2022/07/24 11:16:51;;;;;;;3.40;2.70;;;;;;;27.25;44.99;99238.54;109269;1277;23709;-68
2022/07/24 11:19:17;;;;;;;3.00;2.50;;;;;;;27.28;44.64;99234.66;109183;1277;137681;-68
2022/07/24 11:21:49;;;;;;;5.00;4.50;;;;;;;27.29;44.53;99232.59;109302;1277;23167;-69
2022/07/24 11:24:22;;;;;;;7.60;3.50;;;;;;;27.29;45.09;99233.47;109153;1277;137320;-68
2022/07/24 11:26:56;;;;;;;6.50;3.30;;;;;;;27.27;45.16;99237.20;106451;1275;24258;-60
2022/07/24 11:29:32;;;;;;;6.20;2.70;;;;;;;27.25;45.13;99233.66;104922;1277;23849;-59